sensor_id;sensor_type;location;lat;lon;timestamp;temperature;humidity
32694;DHT22;19084;44.716;10.218;2022-09-16T00:01:47;24.10;99.90
32694;DHT22;19084;44.716;10.218;2022-09-16T00:04:20;24.10;99.90
32694;DHT22;19084;44.716;10.218;2022-09-16T00:06:52;24.00;99.90
32694;DHT22;19084;44.716;10.218;2022-09-16T00:09:25;24.00;99.90
32694;DHT22;19084;44.716;10.218;2022-09-16T00:11:58;24.00;99.90
32694;DHT22;19084;44.716;10.218;2022-09-16T00:14:30;23.90;99.90
32694;DHT22;19084;44.716;10.218;2022-09-16T00:17:03;23.90;99.90
32694;DHT22;19084;44.716;10.218;2022-09-16T00:19:35;23.90;99.90
32694;DHT22;19084;44.716;10.218;2022-09-16T00:22:08;23.90;99.90
32694;DHT22;19084;44.716;10.218;2022-09-16T00:24:40;23.90;99.90
32694;DHT22;19084;44.716;10.218;2022-09-16T00:27:13;24.00;99.90
32694;DHT22;19084;44.716;10.218;2022-09-16T00:29:46;24.00;99.90
32694;DHT22;19084;44.716;10.218;2022-09-16T00:32:18;24.00;99.90
32694;DHT22;19084;44.716;10.218;2022-09-16T00:34:51;24.00;99.90
32694;DHT22;19084;44.716;10.218;2022-09-16T00:37:24;24.00;99.90
32694;DHT22;19084;44.716;10.218;2022-09-16T00:39:56;23.90;99.90
32694;DHT22;19084;44.716;10.218;2022-09-16T00:42:29;23.90;99.90
32694;DHT22;19084;44.716;10.218;2022-09-16T00:47:43;23.90;99.90
32694;DHT22;19084;44.716;10.218;2022-09-16T00:50:21;23.90;99.90
32694;DHT22;19084;44.716;10.218;2022-09-16T00:52:55;23.90;99.90
32694;DHT22;19084;44.716;10.218;2022-09-16T00:55:32;23.80;99.90
32694;DHT22;19084;44.716;10.218;2022-09-16T00:58:13;23.80;99.90
32694;DHT22;19084;44.716;10.218;2022-09-16T01:00:47;23.80;99.90
32694;DHT22;19084;44.716;10.218;2022-09-16T01:03:20;23.80;99.90
32694;DHT22;19084;44.716;10.218;2022-09-16T01:05:54;23.70;99.90
32694;DHT22;19084;44.716;10.218;2022-09-16T01:08:27;23.70;99.90
32694;DHT22;19084;44.716;10.218;2022-09-16T01:10:59;23.60;99.90
32694;DHT22;19084;44.716;10.218;2022-09-16T01:13:32;23.60;99.90
32694;DHT22;19084;44.716;10.218;2022-09-16T01:21:56;23.40;99.90
32694;DHT22;19084;44.716;10.218;2022-09-16T01:24:49;23.30;99.90
32694;DHT22;19084;44.716;10.218;2022-09-16T01:27:38;23.20;99.90
32694;DHT22;19084;44.716;10.218;2022-09-16T01:50:07;22.80;99.90
32694;DHT22;19084;44.716;10.218;2022-09-16T01:55:42;22.70;99.90
32694;DHT22;19084;44.716;10.218;2022-09-16T02:01:20;22.60;99.90
32694;DHT22;19084;44.716;10.218;2022-09-16T02:03:59;22.60;99.90
32694;DHT22;19084;44.716;10.218;2022-09-16T02:06:33;22.50;99.90
32694;DHT22;19084;44.716;10.218;2022-09-16T02:09:13;22.50;99.90
32694;DHT22;19084;44.716;10.218;2022-09-16T02:11:49;22.40;99.90
32694;DHT22;19084;44.716;10.218;2022-09-16T02:14:27;22.40;99.90
32694;DHT22;19084;44.716;10.218;2022-09-16T02:17:05;22.40;99.90
32694;DHT22;19084;44.716;10.218;2022-09-16T02:19:43;22.30;99.90
32694;DHT22;19084;44.716;10.218;2022-09-16T02:22:26;22.30;99.90
32694;DHT22;19084;44.716;10.218;2022-09-16T02:25:02;22.20;99.90
32694;DHT22;19084;44.716;10.218;2022-09-16T02:27:38;22.20;99.90
32694;DHT22;19084;44.716;10.218;2022-09-16T02:30:16;22.20;99.90
32694;DHT22;19084;44.716;10.218;2022-09-16T02:32:55;22.20;99.90
32694;DHT22;19084;44.716;10.218;2022-09-16T02:35:33;22.00;99.90
32694;DHT22;19084;44.716;10.218;2022-09-16T02:38:15;22.00;99.90
32694;DHT22;19084;44.716;10.218;2022-09-16T02:40:53;22.00;99.90
32694;DHT22;19084;44.716;10.218;2022-09-16T02:43:27;21.90;99.90
32694;DHT22;19084;44.716;10.218;2022-09-16T02:46:09;21.90;99.90
32694;DHT22;19084;44.716;10.218;2022-09-16T02:56:59;21.80;99.90
32694;DHT22;19084;44.716;10.218;2022-09-16T02:59:32;21.80;99.90
32694;DHT22;19084;44.716;10.218;2022-09-16T03:02:05;21.80;99.90
32694;DHT22;19084;44.716;10.218;2022-09-16T03:04:38;21.80;99.90
32694;DHT22;19084;44.716;10.218;2022-09-16T03:07:11;21.80;99.90
32694;DHT22;19084;44.716;10.218;2022-09-16T03:09:46;21.80;99.90
32694;DHT22;19084;44.716;10.218;2022-09-16T03:12:31;21.80;99.90
32694;DHT22;19084;44.716;10.218;2022-09-16T03:15:15;21.80;99.90
32694;DHT22;19084;44.716;10.218;2022-09-16T03:26:33;21.70;99.90
32694;DHT22;19084;44.716;10.218;2022-09-16T03:29:12;21.60;99.90
32694;DHT22;19084;44.716;10.218;2022-09-16T03:32:02;21.60;99.90
32694;DHT22;19084;44.716;10.218;2022-09-16T03:34:41;21.50;99.90
32694;DHT22;19084;44.716;10.218;2022-09-16T03:37:17;21.40;99.90
32694;DHT22;19084;44.716;10.218;2022-09-16T03:39:55;21.40;99.90
32694;DHT22;19084;44.716;10.218;2022-09-16T03:42:29;21.50;99.90
32694;DHT22;19084;44.716;10.218;2022-09-16T03:45:02;21.50;99.90
32694;DHT22;19084;44.716;10.218;2022-09-16T03:47:35;21.50;99.90
32694;DHT22;19084;44.716;10.218;2022-09-16T03:50:08;21.60;99.90
32694;DHT22;19084;44.716;10.218;2022-09-16T03:52:41;21.50;99.90
32694;DHT22;19084;44.716;10.218;2022-09-16T03:55:14;21.50;99.90
32694;DHT22;19084;44.716;10.218;2022-09-16T03:57:48;21.50;99.90
32694;DHT22;19084;44.716;10.218;2022-09-16T04:00:21;21.30;99.90
32694;DHT22;19084;44.716;10.218;2022-09-16T04:02:54;21.20;99.90
32694;DHT22;19084;44.716;10.218;2022-09-16T04:05:27;21.20;99.90
32694;DHT22;19084;44.716;10.218;2022-09-16T04:08:00;21.20;99.90
32694;DHT22;19084;44.716;10.218;2022-09-16T04:10:33;21.10;99.90
32694;DHT22;19084;44.716;10.218;2022-09-16T04:13:06;21.10;99.90
32694;DHT22;19084;44.716;10.218;2022-09-16T04:15:38;21.10;99.90
32694;DHT22;19084;44.716;10.218;2022-09-16T04:18:11;21.10;99.90
32694;DHT22;19084;44.716;10.218;2022-09-16T04:20:44;21.00;99.90
32694;DHT22;19084;44.716;10.218;2022-09-16T04:23:17;20.90;99.90
32694;DHT22;19084;44.716;10.218;2022-09-16T04:25:54;20.90;99.90
32694;DHT22;19084;44.716;10.218;2022-09-16T04:28:28;20.90;99.90
32694;DHT22;19084;44.716;10.218;2022-09-16T04:31:04;20.90;99.90
32694;DHT22;19084;44.716;10.218;2022-09-16T04:33:38;20.90;99.90
32694;DHT22;19084;44.716;10.218;2022-09-16T04:36:14;20.90;99.90
32694;DHT22;19084;44.716;10.218;2022-09-16T04:38:48;20.90;99.90
32694;DHT22;19084;44.716;10.218;2022-09-16T04:41:23;20.90;99.90
32694;DHT22;19084;44.716;10.218;2022-09-16T04:43:58;21.00;99.90
32694;DHT22;19084;44.716;10.218;2022-09-16T04:46:31;21.00;99.90
32694;DHT22;19084;44.716;10.218;2022-09-16T04:49:04;21.00;99.90
32694;DHT22;19084;44.716;10.218;2022-09-16T04:51:37;21.00;99.90
32694;DHT22;19084;44.716;10.218;2022-09-16T04:54:10;21.00;99.90
32694;DHT22;19084;44.716;10.218;2022-09-16T04:56:43;20.90;99.90
32694;DHT22;19084;44.716;10.218;2022-09-16T04:59:16;20.90;99.90
32694;DHT22;19084;44.716;10.218;2022-09-16T05:01:48;20.90;99.90
32694;DHT22;19084;44.716;10.218;2022-09-16T05:04:21;20.90;99.90
32694;DHT22;19084;44.716;10.218;2022-09-16T05:06:54;20.90;99.90
32694;DHT22;19084;44.716;10.218;2022-09-16T05:09:27;20.80;99.90
32694;DHT22;19084;44.716;10.218;2022-09-16T05:12:00;20.80;99.90
32694;DHT22;19084;44.716;10.218;2022-09-16T05:14:32;20.80;99.90
32694;DHT22;19084;44.716;10.218;2022-09-16T05:17:05;20.80;99.90
32694;DHT22;19084;44.716;10.218;2022-09-16T05:19:38;20.80;99.90
32694;DHT22;19084;44.716;10.218;2022-09-16T05:22:11;20.80;99.90
32694;DHT22;19084;44.716;10.218;2022-09-16T05:24:43;20.80;99.90
32694;DHT22;19084;44.716;10.218;2022-09-16T05:27:16;20.90;99.90
32694;DHT22;19084;44.716;10.218;2022-09-16T05:29:49;20.90;99.90
32694;DHT22;19084;44.716;10.218;2022-09-16T05:32:21;21.00;99.90
32694;DHT22;19084;44.716;10.218;2022-09-16T05:34:54;21.10;99.90
32694;DHT22;19084;44.716;10.218;2022-09-16T05:37:27;21.10;99.90
32694;DHT22;19084;44.716;10.218;2022-09-16T05:39:59;21.10;99.90
32694;DHT22;19084;44.716;10.218;2022-09-16T05:42:32;21.20;99.90
32694;DHT22;19084;44.716;10.218;2022-09-16T05:45:06;21.30;99.90
32694;DHT22;19084;44.716;10.218;2022-09-16T05:47:38;21.40;99.90
32694;DHT22;19084;44.716;10.218;2022-09-16T05:50:11;21.60;99.90
32694;DHT22;19084;44.716;10.218;2022-09-16T05:52:44;21.70;99.90
32694;DHT22;19084;44.716;10.218;2022-09-16T05:55:17;21.70;99.90
32694;DHT22;19084;44.716;10.218;2022-09-16T05:57:49;21.90;99.90
32694;DHT22;19084;44.716;10.218;2022-09-16T06:00:22;21.90;99.90
32694;DHT22;19084;44.716;10.218;2022-09-16T06:02:54;21.90;99.90
32694;DHT22;19084;44.716;10.218;2022-09-16T06:05:27;21.90;99.90
32694;DHT22;19084;44.716;10.218;2022-09-16T06:08:00;21.80;99.90
32694;DHT22;19084;44.716;10.218;2022-09-16T06:10:38;21.80;99.90
32694;DHT22;19084;44.716;10.218;2022-09-16T06:13:11;21.80;99.90
32694;DHT22;19084;44.716;10.218;2022-09-16T06:15:52;21.80;99.90
32694;DHT22;19084;44.716;10.218;2022-09-16T06:18:28;21.90;99.90
32694;DHT22;19084;44.716;10.218;2022-09-16T06:21:05;21.90;99.90
32694;DHT22;19084;44.716;10.218;2022-09-16T06:23:39;22.00;99.90
32694;DHT22;19084;44.716;10.218;2022-09-16T06:26:15;22.10;99.90
32694;DHT22;19084;44.716;10.218;2022-09-16T06:28:48;22.20;99.90
32694;DHT22;19084;44.716;10.218;2022-09-16T06:31:23;22.20;99.90
32694;DHT22;19084;44.716;10.218;2022-09-16T06:33:58;22.30;99.90
32694;DHT22;19084;44.716;10.218;2022-09-16T06:36:33;22.50;99.90
32694;DHT22;19084;44.716;10.218;2022-09-16T06:39:05;22.60;99.90
32694;DHT22;19084;44.716;10.218;2022-09-16T06:41:38;22.60;99.90
32694;DHT22;19084;44.716;10.218;2022-09-16T06:44:10;22.70;99.90
32694;DHT22;19084;44.716;10.218;2022-09-16T06:46:43;22.80;99.90
32694;DHT22;19084;44.716;10.218;2022-09-16T06:49:16;22.80;99.90
32694;DHT22;19084;44.716;10.218;2022-09-16T06:51:48;22.90;99.90
32694;DHT22;19084;44.716;10.218;2022-09-16T06:54:23;23.00;99.90
32694;DHT22;19084;44.716;10.218;2022-09-16T06:56:55;23.20;99.90
32694;DHT22;19084;44.716;10.218;2022-09-16T06:59:29;23.30;99.90
32694;DHT22;19084;44.716;10.218;2022-09-16T07:02:02;23.30;99.90
32694;DHT22;19084;44.716;10.218;2022-09-16T07:04:34;23.50;99.90
32694;DHT22;19084;44.716;10.218;2022-09-16T07:07:07;23.70;99.90
32694;DHT22;19084;44.716;10.218;2022-09-16T07:09:41;23.80;99.90
32694;DHT22;19084;44.716;10.218;2022-09-16T07:12:14;23.90;99.90
32694;DHT22;19084;44.716;10.218;2022-09-16T07:14:50;24.10;99.90
32694;DHT22;19084;44.716;10.218;2022-09-16T07:17:24;24.20;99.90
32694;DHT22;19084;44.716;10.218;2022-09-16T07:19:58;24.20;99.90
32694;DHT22;19084;44.716;10.218;2022-09-16T07:22:31;24.30;99.90
32694;DHT22;19084;44.716;10.218;2022-09-16T07:25:04;24.40;99.90
32694;DHT22;19084;44.716;10.218;2022-09-16T07:27:37;24.40;99.90
32694;DHT22;19084;44.716;10.218;2022-09-16T07:30:10;24.50;99.90
32694;DHT22;19084;44.716;10.218;2022-09-16T07:32:43;24.60;99.90
32694;DHT22;19084;44.716;10.218;2022-09-16T07:35:16;24.60;99.90
32694;DHT22;19084;44.716;10.218;2022-09-16T07:37:49;24.60;99.90
32694;DHT22;19084;44.716;10.218;2022-09-16T07:40:21;24.70;99.90
32694;DHT22;19084;44.716;10.218;2022-09-16T07:43:00;24.70;99.90
32694;DHT22;19084;44.716;10.218;2022-09-16T07:45:33;24.80;99.90
32694;DHT22;19084;44.716;10.218;2022-09-16T07:48:05;24.80;99.90
32694;DHT22;19084;44.716;10.218;2022-09-16T07:50:38;24.80;99.90
32694;DHT22;19084;44.716;10.218;2022-09-16T07:53:10;24.80;99.90
32694;DHT22;19084;44.716;10.218;2022-09-16T07:55:43;24.80;99.90
32694;DHT22;19084;44.716;10.218;2022-09-16T07:58:16;24.80;99.90
32694;DHT22;19084;44.716;10.218;2022-09-16T08:00:49;24.90;99.90
32694;DHT22;19084;44.716;10.218;2022-09-16T08:03:22;24.80;99.90
32694;DHT22;19084;44.716;10.218;2022-09-16T08:05:59;24.70;99.90
32694;DHT22;19084;44.716;10.218;2022-09-16T08:08:33;24.80;99.90
32694;DHT22;19084;44.716;10.218;2022-09-16T08:11:07;24.90;99.90
32694;DHT22;19084;44.716;10.218;2022-09-16T08:13:41;25.00;99.90
32694;DHT22;19084;44.716;10.218;2022-09-16T08:16:16;25.00;99.90
32694;DHT22;19084;44.716;10.218;2022-09-16T08:18:52;25.10;99.90
32694;DHT22;19084;44.716;10.218;2022-09-16T08:21:27;25.20;99.90
32694;DHT22;19084;44.716;10.218;2022-09-16T08:24:00;25.20;99.90
32694;DHT22;19084;44.716;10.218;2022-09-16T08:26:33;25.30;99.90
32694;DHT22;19084;44.716;10.218;2022-09-16T08:29:05;25.30;99.90
32694;DHT22;19084;44.716;10.218;2022-09-16T08:31:41;25.40;99.90
32694;DHT22;19084;44.716;10.218;2022-09-16T08:34:13;25.50;99.90
32694;DHT22;19084;44.716;10.218;2022-09-16T08:36:47;25.60;99.90
32694;DHT22;19084;44.716;10.218;2022-09-16T08:39:20;25.70;99.90
32694;DHT22;19084;44.716;10.218;2022-09-16T08:50:16;25.90;99.90
32694;DHT22;19084;44.716;10.218;2022-09-16T08:52:49;26.00;99.90
32694;DHT22;19084;44.716;10.218;2022-09-16T08:55:31;26.00;99.90
32694;DHT22;19084;44.716;10.218;2022-09-16T08:58:14;26.10;99.90
32694;DHT22;19084;44.716;10.218;2022-09-16T09:00:56;26.30;99.90
32694;DHT22;19084;44.716;10.218;2022-09-16T09:03:39;26.30;99.90
32694;DHT22;19084;44.716;10.218;2022-09-16T09:06:35;26.20;99.90
32694;DHT22;19084;44.716;10.218;2022-09-16T09:14:50;26.10;99.90
32694;DHT22;19084;44.716;10.218;2022-09-16T09:20:37;26.20;99.90
32694;DHT22;19084;44.716;10.218;2022-09-16T09:29:28;26.10;99.90
32694;DHT22;19084;44.716;10.218;2022-09-16T09:32:24;26.20;99.90
32694;DHT22;19084;44.716;10.218;2022-09-16T09:40:36;26.50;99.90
32694;DHT22;19084;44.716;10.218;2022-09-16T09:43:18;26.60;99.90
32694;DHT22;19084;44.716;10.218;2022-09-16T09:51:37;26.90;99.90
32694;DHT22;19084;44.716;10.218;2022-09-16T10:00:03;26.80;99.90
32694;DHT22;19084;44.716;10.218;2022-09-16T10:02:44;26.80;99.90
32694;DHT22;19084;44.716;10.218;2022-09-16T10:05:26;26.90;99.90
32694;DHT22;19084;44.716;10.218;2022-09-16T10:08:11;27.00;99.90
32694;DHT22;19084;44.716;10.218;2022-09-16T10:10:51;27.00;99.90
32694;DHT22;19084;44.716;10.218;2022-09-16T10:13:26;27.00;99.90
32694;DHT22;19084;44.716;10.218;2022-09-16T10:16:13;27.10;99.90
32694;DHT22;19084;44.716;10.218;2022-09-16T10:19:02;27.00;99.90
32694;DHT22;19084;44.716;10.218;2022-09-16T10:21:40;27.10;99.90
32694;DHT22;19084;44.716;10.218;2022-09-16T10:24:29;27.10;99.90
32694;DHT22;19084;44.716;10.218;2022-09-16T10:32:50;27.50;99.90
32694;DHT22;19084;44.716;10.218;2022-09-16T10:35:28;27.60;99.90
32694;DHT22;19084;44.716;10.218;2022-09-16T10:38:05;27.60;99.90
32694;DHT22;19084;44.716;10.218;2022-09-16T10:40:51;27.60;99.90
32694;DHT22;19084;44.716;10.218;2022-09-16T10:43:24;27.40;99.90
32694;DHT22;19084;44.716;10.218;2022-09-16T10:45:59;27.30;99.90
32694;DHT22;19084;44.716;10.218;2022-09-16T10:48:33;27.30;99.90
32694;DHT22;19084;44.716;10.218;2022-09-16T10:51:24;27.50;99.90
32694;DHT22;19084;44.716;10.218;2022-09-16T10:54:00;27.80;99.90
32694;DHT22;19084;44.716;10.218;2022-09-16T10:56:46;28.10;99.90
32694;DHT22;19084;44.716;10.218;2022-09-16T10:59:19;28.40;99.90
32694;DHT22;19084;44.716;10.218;2022-09-16T11:02:04;28.60;99.90
32694;DHT22;19084;44.716;10.218;2022-09-16T11:18:50;28.80;99.90
32694;DHT22;19084;44.716;10.218;2022-09-16T11:21:29;28.60;99.90
32694;DHT22;19084;44.716;10.218;2022-09-16T11:44:02;29.00;99.90
32694;DHT22;19084;44.716;10.218;2022-09-16T11:49:29;29.20;99.90
32694;DHT22;19084;44.716;10.218;2022-09-16T11:57:52;29.50;99.90
32694;DHT22;19084;44.716;10.218;2022-09-16T12:00:28;29.50;99.90
32694;DHT22;19084;44.716;10.218;2022-09-16T12:03:12;29.50;99.90
32694;DHT22;19084;44.716;10.218;2022-09-16T12:05:52;29.60;99.90
32694;DHT22;19084;44.716;10.218;2022-09-16T12:11:45;29.80;99.90
32694;DHT22;19084;44.716;10.218;2022-09-16T12:14:24;29.80;99.90
32694;DHT22;19084;44.716;10.218;2022-09-16T12:17:05;29.80;99.90
32694;DHT22;19084;44.716;10.218;2022-09-16T12:27:42;29.20;99.90
32694;DHT22;19084;44.716;10.218;2022-09-16T12:30:19;28.90;99.90
32694;DHT22;19084;44.716;10.218;2022-09-16T12:32:56;28.70;99.90
32694;DHT22;19084;44.716;10.218;2022-09-16T12:35:41;28.50;99.90
32694;DHT22;19084;44.716;10.218;2022-09-16T12:38:18;28.30;99.90
32694;DHT22;19084;44.716;10.218;2022-09-16T12:54:58;25.70;99.90
32694;DHT22;19084;44.716;10.218;2022-09-16T12:57:46;25.20;99.90
32694;DHT22;19084;44.716;10.218;2022-09-16T13:03:12;24.50;99.90
32694;DHT22;19084;44.716;10.218;2022-09-16T13:05:49;24.60;99.90
32694;DHT22;19084;44.716;10.218;2022-09-16T13:08:27;24.90;99.90
32694;DHT22;19084;44.716;10.218;2022-09-16T13:11:06;25.10;99.90
32694;DHT22;19084;44.716;10.218;2022-09-16T13:14:00;25.30;99.90
32694;DHT22;19084;44.716;10.218;2022-09-16T13:16:35;25.50;99.90
32694;DHT22;19084;44.716;10.218;2022-09-16T13:22:20;25.50;99.90
32694;DHT22;19084;44.716;10.218;2022-09-16T13:30:35;26.00;99.90
32694;DHT22;19084;44.716;10.218;2022-09-16T13:35:44;26.40;99.90
32694;DHT22;19084;44.716;10.218;2022-09-16T13:40:58;27.00;99.90
32694;DHT22;19084;44.716;10.218;2022-09-16T13:43:47;27.30;99.90
32694;DHT22;19084;44.716;10.218;2022-09-16T13:46:37;27.50;99.90
32694;DHT22;19084;44.716;10.218;2022-09-16T13:49:15;27.70;99.90
32694;DHT22;19084;44.716;10.218;2022-09-16T13:51:51;28.00;99.90
32694;DHT22;19084;44.716;10.218;2022-09-16T13:54:25;28.10;99.90
32694;DHT22;19084;44.716;10.218;2022-09-16T14:02:41;28.30;99.90
32694;DHT22;19084;44.716;10.218;2022-09-16T14:13:40;28.70;99.90
32694;DHT22;19084;44.716;10.218;2022-09-16T14:16:25;28.70;99.90
32694;DHT22;19084;44.716;10.218;2022-09-16T14:24:46;27.90;99.90
32694;DHT22;19084;44.716;10.218;2022-09-16T14:27:33;28.00;99.90
32694;DHT22;19084;44.716;10.218;2022-09-16T14:30:23;28.00;99.90
32694;DHT22;19084;44.716;10.218;2022-09-16T14:32:56;28.10;99.90
32694;DHT22;19084;44.716;10.218;2022-09-16T14:35:28;28.20;99.90
32694;DHT22;19084;44.716;10.218;2022-09-16T14:38:03;28.30;99.90
32694;DHT22;19084;44.716;10.218;2022-09-16T14:40:54;28.40;99.90
32694;DHT22;19084;44.716;10.218;2022-09-16T14:43:27;28.40;99.90
32694;DHT22;19084;44.716;10.218;2022-09-16T14:46:02;28.40;99.90
32694;DHT22;19084;44.716;10.218;2022-09-16T14:48:38;28.20;99.90
32694;DHT22;19084;44.716;10.218;2022-09-16T14:51:20;28.10;99.90
32694;DHT22;19084;44.716;10.218;2022-09-16T14:53:56;28.10;99.90
32694;DHT22;19084;44.716;10.218;2022-09-16T14:59:31;28.30;99.90
32694;DHT22;19084;44.716;10.218;2022-09-16T15:04:52;28.30;99.90
32694;DHT22;19084;44.716;10.218;2022-09-16T15:07:31;28.30;99.90
32694;DHT22;19084;44.716;10.218;2022-09-16T15:12:50;28.30;99.90
32694;DHT22;19084;44.716;10.218;2022-09-16T15:15:26;28.20;99.90
32694;DHT22;19084;44.716;10.218;2022-09-16T15:18:04;28.30;99.90
32694;DHT22;19084;44.716;10.218;2022-09-16T15:20:39;28.30;99.90
32694;DHT22;19084;44.716;10.218;2022-09-16T15:23:19;28.40;99.90
32694;DHT22;19084;44.716;10.218;2022-09-16T15:26:03;28.40;99.90
32694;DHT22;19084;44.716;10.218;2022-09-16T15:31:35;28.30;99.90
32694;DHT22;19084;44.716;10.218;2022-09-16T15:34:23;28.20;99.90
32694;DHT22;19084;44.716;10.218;2022-09-16T15:37:27;28.10;99.90
32694;DHT22;19084;44.716;10.218;2022-09-16T15:45:55;27.80;99.90
32694;DHT22;19084;44.716;10.218;2022-09-16T15:48:33;27.70;99.90
32694;DHT22;19084;44.716;10.218;2022-09-16T15:51:21;27.70;99.90
32694;DHT22;19084;44.716;10.218;2022-09-16T15:57:00;27.60;99.90
32694;DHT22;19084;44.716;10.218;2022-09-16T15:59:39;27.40;99.90
32694;DHT22;19084;44.716;10.218;2022-09-16T16:02:31;27.40;99.90
32694;DHT22;19084;44.716;10.218;2022-09-16T16:05:16;27.40;99.90
32694;DHT22;19084;44.716;10.218;2022-09-16T16:07:53;27.30;99.90
32694;DHT22;19084;44.716;10.218;2022-09-16T16:10:29;27.20;99.90
32694;DHT22;19084;44.716;10.218;2022-09-16T16:13:03;27.10;99.90
32694;DHT22;19084;44.716;10.218;2022-09-16T16:15:37;27.10;99.90
32694;DHT22;19084;44.716;10.218;2022-09-16T16:18:11;27.00;99.90
32694;DHT22;19084;44.716;10.218;2022-09-16T16:20:43;27.00;99.90
32694;DHT22;19084;44.716;10.218;2022-09-16T16:23:16;26.90;99.90
32694;DHT22;19084;44.716;10.218;2022-09-16T16:25:49;26.90;99.90
32694;DHT22;19084;44.716;10.218;2022-09-16T16:28:21;26.80;99.90
32694;DHT22;19084;44.716;10.218;2022-09-16T16:31:14;26.80;99.90
32694;DHT22;19084;44.716;10.218;2022-09-16T16:33:48;26.70;99.90
32694;DHT22;19084;44.716;10.218;2022-09-16T16:36:21;26.60;99.90
32694;DHT22;19084;44.716;10.218;2022-09-16T16:38:54;26.60;99.90
32694;DHT22;19084;44.716;10.218;2022-09-16T16:41:26;26.50;99.90
32694;DHT22;19084;44.716;10.218;2022-09-16T16:44:02;26.40;99.90
32694;DHT22;19084;44.716;10.218;2022-09-16T16:46:35;26.40;99.90
32694;DHT22;19084;44.716;10.218;2022-09-16T16:49:08;26.40;99.90
32694;DHT22;19084;44.716;10.218;2022-09-16T16:51:40;26.30;99.90
32694;DHT22;19084;44.716;10.218;2022-09-16T16:54:14;26.20;99.90
32694;DHT22;19084;44.716;10.218;2022-09-16T16:56:47;26.20;99.90
32694;DHT22;19084;44.716;10.218;2022-09-16T16:59:20;26.20;99.90
32694;DHT22;19084;44.716;10.218;2022-09-16T17:01:55;26.20;99.90
32694;DHT22;19084;44.716;10.218;2022-09-16T17:04:28;26.10;99.90
32694;DHT22;19084;44.716;10.218;2022-09-16T17:07:01;26.10;99.90
32694;DHT22;19084;44.716;10.218;2022-09-16T17:09:55;26.00;99.90
32694;DHT22;19084;44.716;10.218;2022-09-16T17:12:30;26.00;99.90
32694;DHT22;19084;44.716;10.218;2022-09-16T17:15:03;26.00;99.90
32694;DHT22;19084;44.716;10.218;2022-09-16T17:17:35;25.90;99.90
32694;DHT22;19084;44.716;10.218;2022-09-16T17:20:08;25.90;99.90
32694;DHT22;19084;44.716;10.218;2022-09-16T17:22:41;25.90;99.90
32694;DHT22;19084;44.716;10.218;2022-09-16T17:25:14;25.80;99.90
32694;DHT22;19084;44.716;10.218;2022-09-16T17:27:46;25.80;99.90
32694;DHT22;19084;44.716;10.218;2022-09-16T17:30:19;25.80;99.90
32694;DHT22;19084;44.716;10.218;2022-09-16T17:32:51;25.70;99.90
32694;DHT22;19084;44.716;10.218;2022-09-16T17:35:24;25.70;99.90
32694;DHT22;19084;44.716;10.218;2022-09-16T17:37:56;25.60;99.90
32694;DHT22;19084;44.716;10.218;2022-09-16T17:40:29;25.60;99.90
32694;DHT22;19084;44.716;10.218;2022-09-16T17:43:02;25.60;99.90
32694;DHT22;19084;44.716;10.218;2022-09-16T17:45:35;25.60;99.90
32694;DHT22;19084;44.716;10.218;2022-09-16T17:48:08;25.50;99.90
32694;DHT22;19084;44.716;10.218;2022-09-16T17:50:40;25.50;99.90
32694;DHT22;19084;44.716;10.218;2022-09-16T17:53:13;25.40;99.90
32694;DHT22;19084;44.716;10.218;2022-09-16T17:55:45;25.40;99.90
32694;DHT22;19084;44.716;10.218;2022-09-16T17:58:18;25.40;99.90
32694;DHT22;19084;44.716;10.218;2022-09-16T18:00:51;25.30;99.90
32694;DHT22;19084;44.716;10.218;2022-09-16T18:03:23;25.30;99.90
32694;DHT22;19084;44.716;10.218;2022-09-16T18:06:13;25.30;99.90
32694;DHT22;19084;44.716;10.218;2022-09-16T18:08:47;25.30;99.90
32694;DHT22;19084;44.716;10.218;2022-09-16T18:11:20;25.20;99.90
32694;DHT22;19084;44.716;10.218;2022-09-16T18:13:56;25.20;99.90
32694;DHT22;19084;44.716;10.218;2022-09-16T18:16:30;25.20;99.90
32694;DHT22;19084;44.716;10.218;2022-09-16T18:19:04;25.10;99.90
32694;DHT22;19084;44.716;10.218;2022-09-16T18:21:36;25.10;99.90
32694;DHT22;19084;44.716;10.218;2022-09-16T18:24:11;25.10;99.90
32694;DHT22;19084;44.716;10.218;2022-09-16T18:26:44;25.10;99.90
32694;DHT22;19084;44.716;10.218;2022-09-16T18:29:17;25.10;99.90
32694;DHT22;19084;44.716;10.218;2022-09-16T18:31:50;25.00;99.90
32694;DHT22;19084;44.716;10.218;2022-09-16T18:34:24;25.00;99.90
32694;DHT22;19084;44.716;10.218;2022-09-16T18:37:02;25.00;99.90
32694;DHT22;19084;44.716;10.218;2022-09-16T18:39:35;25.00;99.90
32694;DHT22;19084;44.716;10.218;2022-09-16T18:42:08;25.00;99.90
32694;DHT22;19084;44.716;10.218;2022-09-16T18:44:41;24.90;99.90
32694;DHT22;19084;44.716;10.218;2022-09-16T18:47:14;24.90;99.90
32694;DHT22;19084;44.716;10.218;2022-09-16T18:49:47;24.90;99.90
32694;DHT22;19084;44.716;10.218;2022-09-16T18:52:19;24.90;99.90
32694;DHT22;19084;44.716;10.218;2022-09-16T18:54:52;24.80;99.90
32694;DHT22;19084;44.716;10.218;2022-09-16T18:57:25;24.80;99.90
32694;DHT22;19084;44.716;10.218;2022-09-16T18:59:57;24.70;99.90
32694;DHT22;19084;44.716;10.218;2022-09-16T19:02:30;24.70;99.90
32694;DHT22;19084;44.716;10.218;2022-09-16T19:05:04;24.70;99.90
32694;DHT22;19084;44.716;10.218;2022-09-16T19:07:36;24.60;99.90
32694;DHT22;19084;44.716;10.218;2022-09-16T19:10:09;24.60;99.90
32694;DHT22;19084;44.716;10.218;2022-09-16T19:12:42;24.50;99.90
32694;DHT22;19084;44.716;10.218;2022-09-16T19:15:15;24.40;99.90
32694;DHT22;19084;44.716;10.218;2022-09-16T19:17:47;24.40;99.90
32694;DHT22;19084;44.716;10.218;2022-09-16T19:20:21;24.40;99.90
32694;DHT22;19084;44.716;10.218;2022-09-16T19:22:53;24.40;99.90
32694;DHT22;19084;44.716;10.218;2022-09-16T19:25:26;24.30;99.90
32694;DHT22;19084;44.716;10.218;2022-09-16T19:27:59;24.30;99.90
32694;DHT22;19084;44.716;10.218;2022-09-16T19:30:32;24.30;99.90
32694;DHT22;19084;44.716;10.218;2022-09-16T19:33:05;24.20;99.90
32694;DHT22;19084;44.716;10.218;2022-09-16T19:35:39;24.20;99.90
32694;DHT22;19084;44.716;10.218;2022-09-16T19:38:11;24.20;99.90
32694;DHT22;19084;44.716;10.218;2022-09-16T19:40:44;24.20;99.90
32694;DHT22;19084;44.716;10.218;2022-09-16T19:43:17;24.10;99.90
32694;DHT22;19084;44.716;10.218;2022-09-16T19:45:50;24.10;99.90
32694;DHT22;19084;44.716;10.218;2022-09-16T19:48:23;24.10;99.90
32694;DHT22;19084;44.716;10.218;2022-09-16T19:50:57;24.00;99.90